createdAt,value
2019-03-21T00:02:11.169Z,101564.66
2019-03-21T00:04:40.972Z,101561.14
2019-03-21T00:07:09.595Z,101552.82
2019-03-21T00:09:38.163Z,101554.55
2019-03-21T00:12:13.465Z,101554.12
2019-03-21T00:15:03.073Z,101547.55
2019-03-21T00:17:40.877Z,101551.89
2019-03-21T00:20:14.633Z,101556.66
2019-03-21T00:22:43.196Z,101563.62
2019-03-21T00:25:20.528Z,101563.64
2019-03-21T00:27:49.019Z,101562.33
2019-03-21T00:30:22.787Z,101553.20
2019-03-21T00:32:51.764Z,101554.05
2019-03-21T00:35:20.315Z,101549.67
2019-03-21T00:37:49.347Z,101549.20
2019-03-21T00:40:29.406Z,101544.39
2019-03-21T00:42:59.931Z,101543.50
2019-03-21T00:45:29.377Z,101545.63
2019-03-21T00:47:58.240Z,101544.72
2019-03-21T00:50:30.473Z,101545.98
2019-03-21T00:52:58.947Z,101541.17
2019-03-21T00:55:33.254Z,101540.23
2019-03-21T00:58:02.710Z,101533.58
2019-03-21T01:00:46.021Z,101533.12
2019-03-21T01:03:14.969Z,101528.72
2019-03-21T01:05:43.840Z,101532.15
2019-03-21T01:08:12.311Z,101530.38
2019-03-21T01:10:40.845Z,101534.72
2019-03-21T01:13:09.385Z,101543.40
2019-03-21T01:15:37.850Z,101543.05
2019-03-21T01:18:06.464Z,101543.05
2019-03-21T01:20:34.932Z,101537.84
2019-03-21T01:23:03.408Z,101555.37
2019-03-21T01:25:43.964Z,101560.25
2019-03-21T01:28:12.437Z,101548.11
2019-03-21T01:30:40.903Z,101546.44
2019-03-21T01:33:09.435Z,101538.67
2019-03-21T01:35:39.239Z,101536.11
2019-03-21T01:38:07.850Z,101542.69
2019-03-21T01:40:48.067Z,101537.05
2019-03-21T01:43:16.598Z,101535.81
2019-03-21T01:45:45.061Z,101531.48
2019-03-21T01:48:13.534Z,101525.80
2019-03-21T01:50:43.042Z,101527.97
2019-03-21T01:53:11.517Z,101530.14
2019-03-21T01:55:39.980Z,101530.14
2019-03-21T01:58:08.513Z,101533.13
2019-03-21T02:00:42.840Z,101530.47
2019-03-21T02:03:11.540Z,101529.13
2019-03-21T02:05:40.000Z,101534.41
2019-03-21T02:08:08.462Z,101533.58
2019-03-21T02:10:36.951Z,101530.55
2019-03-21T02:13:05.496Z,101533.63
2019-03-21T02:15:34.973Z,101527.09
2019-03-21T02:18:04.776Z,101520.11
2019-03-21T02:20:33.457Z,101526.25
2019-03-21T02:23:01.920Z,101521.48
2019-03-21T02:25:33.208Z,101520.63
2019-03-21T02:28:01.796Z,101523.25
2019-03-21T02:30:41.580Z,101520.22
2019-03-21T02:33:35.565Z,101522.45
2019-03-21T02:36:07.641Z,101517.22
2019-03-21T02:38:36.093Z,101502.38
2019-03-21T02:41:10.623Z,101512.02
2019-03-21T02:43:39.516Z,101513.80
2019-03-21T02:46:08.028Z,101508.56
2019-03-21T02:48:36.483Z,101504.20
2019-03-21T02:51:06.462Z,101503.77
2019-03-21T02:53:34.918Z,101498.09
2019-03-21T02:56:05.254Z,101497.66
2019-03-21T02:58:33.733Z,101497.66
2019-03-21T03:01:03.423Z,101495.48
2019-03-21T03:03:31.882Z,101502.47
2019-03-21T03:06:00.396Z,101492.89
2019-03-21T03:08:28.944Z,101501.19
2019-03-21T03:11:00.347Z,101489.83
2019-03-21T03:13:28.801Z,101501.66
2019-03-21T03:15:57.281Z,101495.13
2019-03-21T03:18:26.215Z,101499.93
2019-03-21T03:20:54.684Z,101506.50
2019-03-21T03:23:23.286Z,101503.92
2019-03-21T03:25:51.882Z,101503.92
2019-03-21T03:28:32.549Z,101505.24
2019-03-21T03:31:01.057Z,101508.75
2019-03-21T03:33:29.578Z,101506.98
2019-03-21T03:35:58.192Z,101507.86
2019-03-21T03:38:26.735Z,101515.73
2019-03-21T03:40:57.806Z,101507.85
2019-03-21T03:43:26.404Z,101502.16
2019-03-21T03:45:54.883Z,101502.16
2019-03-21T03:48:23.431Z,101520.53
2019-03-21T03:50:51.913Z,101520.53
2019-03-21T03:53:20.378Z,101517.02
2019-03-21T03:55:48.864Z,101520.95
2019-03-21T03:58:23.199Z,101516.59
2019-03-21T04:00:51.733Z,101512.24
2019-03-21T04:03:20.337Z,101511.79
2019-03-21T04:05:48.962Z,101500.90
2019-03-21T04:08:17.723Z,101508.77
2019-03-21T04:10:48.545Z,101510.53
2019-03-21T04:13:17.073Z,101516.23
2019-03-21T04:15:52.578Z,101517.56
2019-03-21T04:18:17.456Z,101513.63
2019-03-21T04:20:55.350Z,101514.98
2019-03-21T04:23:24.268Z,101518.94
2019-03-21T04:25:55.822Z,101519.42
2019-03-21T04:28:24.279Z,101519.42
2019-03-21T04:30:52.804Z,101521.16
2019-03-21T04:33:22.867Z,101519.88
2019-03-21T04:35:51.714Z,101514.66
2019-03-21T04:38:20.270Z,101518.16
2019-03-21T04:40:48.750Z,101515.98
2019-03-21T04:43:17.228Z,101515.55
2019-03-21T04:45:45.858Z,101517.74
2019-03-21T04:48:14.312Z,101513.38
2019-03-21T04:50:43.273Z,101518.19
2019-03-21T04:53:11.725Z,101508.58
2019-03-21T04:55:40.452Z,101507.72
2019-03-21T04:58:08.929Z,101507.70
2019-03-21T05:00:42.586Z,101511.63
2019-03-21T05:03:13.705Z,101505.48
2019-03-21T05:05:42.245Z,101504.16
2019-03-21T05:08:10.753Z,101510.69
2019-03-21T05:10:39.213Z,101504.57
2019-03-21T05:13:07.692Z,101515.45
2019-03-21T05:15:47.009Z,101515.45
2019-03-21T05:18:27.857Z,101513.27
2019-03-21T05:20:56.861Z,101511.97
2019-03-21T05:23:25.433Z,101512.85
2019-03-21T05:25:53.915Z,101511.54
2019-03-21T05:28:22.413Z,101508.94
2019-03-21T05:31:02.559Z,101522.92
2019-03-21T05:33:31.043Z,101533.38
2019-03-21T05:35:59.512Z,101540.42
2019-03-21T05:38:30.657Z,101546.98
2019-03-21T05:40:59.192Z,101543.97
2019-03-21T05:43:47.446Z,101539.63
2019-03-21T05:46:26.113Z,101547.52
2019-03-21T05:48:47.174Z,101543.14
2019-03-21T05:51:15.727Z,101554.09
2019-03-21T05:53:45.188Z,101555.87
2019-03-21T05:56:13.654Z,101555.00
2019-03-21T05:58:42.158Z,101562.03
2019-03-21T06:01:12.256Z,101561.19
2019-03-21T06:03:54.294Z,101558.14
2019-03-21T06:06:47.117Z,101560.77
2019-03-21T06:09:18.869Z,101562.53
2019-03-21T06:11:50.617Z,101567.81
2019-03-21T06:14:19.125Z,101566.47
2019-03-21T06:16:47.659Z,101571.31
2019-03-21T06:19:19.209Z,101570.88
2019-03-21T06:21:53.928Z,101573.95
2019-03-21T06:24:42.300Z,101564.80
2019-03-21T06:27:30.265Z,101567.02
2019-03-21T06:29:58.878Z,101570.51
2019-03-21T06:32:28.079Z,101573.60
2019-03-21T06:34:57.528Z,101570.97
2019-03-21T06:37:28.592Z,101575.80
2019-03-21T06:39:57.073Z,101576.22
2019-03-21T06:42:25.715Z,101575.36
2019-03-21T06:44:54.255Z,101575.34
2019-03-21T06:47:22.785Z,101572.28
2019-03-21T06:49:51.301Z,101573.16
2019-03-21T06:52:19.758Z,101571.38
2019-03-21T06:54:48.268Z,101572.25
2019-03-21T06:57:16.860Z,101576.59
2019-03-21T06:59:45.372Z,101578.35
2019-03-21T07:02:13.969Z,101576.55
2019-03-21T07:04:42.452Z,101582.69
2019-03-21T07:07:10.917Z,101584.43
2019-03-21T07:09:41.368Z,101580.88
2019-03-21T07:12:09.965Z,101582.18
2019-03-21T07:14:38.577Z,101582.58
2019-03-21T07:17:08.181Z,101581.25
2019-03-21T07:19:36.690Z,101582.55
2019-03-21T07:22:05.198Z,101587.31
2019-03-21T07:24:33.725Z,101596.06
2019-03-21T07:27:02.264Z,101590.73
2019-03-21T07:29:30.812Z,101596.37
2019-03-21T07:31:59.349Z,101595.48
2019-03-21T07:34:27.825Z,101598.94
2019-03-21T07:36:56.366Z,101599.72
2019-03-21T07:39:24.875Z,101601.83
2019-03-21T07:41:53.325Z,101600.88
2019-03-21T07:44:21.907Z,101604.34
2019-03-21T07:46:50.505Z,101604.34
2019-03-21T07:49:18.962Z,101602.11
2019-03-21T07:51:47.442Z,101603.80
2019-03-21T07:54:15.906Z,101604.23
2019-03-21T07:56:44.442Z,101610.77
2019-03-21T07:59:12.896Z,101607.98
2019-03-21T08:01:41.366Z,101614.44
2019-03-21T08:04:09.832Z,101620.02
2019-03-21T08:06:38.342Z,101625.22
2019-03-21T08:09:07.858Z,101624.33
2019-03-21T08:11:36.423Z,101615.01
2019-03-21T08:14:05.139Z,101616.77
2019-03-21T08:16:33.654Z,101623.28
2019-03-21T08:19:03.104Z,101623.99
2019-03-21T08:21:31.897Z,101622.70
2019-03-21T08:24:00.390Z,101618.25
2019-03-21T08:26:28.878Z,101617.25
2019-03-21T08:28:57.351Z,101614.05
2019-03-21T08:31:25.898Z,101620.59
2019-03-21T08:33:54.411Z,101615.22
2019-03-21T08:36:22.912Z,101618.28
2019-03-21T08:38:51.423Z,101622.55
2019-03-21T08:41:19.948Z,101623.37
2019-03-21T08:43:48.436Z,101620.25
2019-03-21T08:46:17.019Z,101622.32
2019-03-21T08:48:45.522Z,101619.55
2019-03-21T08:51:15.574Z,101622.05
2019-03-21T08:53:44.041Z,101620.98
2019-03-21T08:56:12.615Z,101620.16
2019-03-21T08:58:41.217Z,101617.61
2019-03-21T09:01:09.780Z,101619.33
2019-03-21T09:03:38.243Z,101616.66
2019-03-21T09:06:06.880Z,101619.57
2019-03-21T09:08:35.437Z,101621.70
2019-03-21T09:11:04.061Z,101623.77
2019-03-21T09:13:38.281Z,101617.86
2019-03-21T09:16:06.837Z,101606.26
2019-03-21T09:18:35.318Z,101610.33
2019-03-21T09:21:04.009Z,101618.16
2019-03-21T09:23:32.482Z,101619.80
2019-03-21T09:26:01.014Z,101621.77
2019-03-21T09:28:29.464Z,101618.42
2019-03-21T09:30:57.987Z,101616.95
2019-03-21T09:33:26.454Z,101609.98
2019-03-21T09:35:54.938Z,101616.89
2019-03-21T09:38:23.410Z,101612.58
2019-03-21T09:40:51.897Z,101618.16
2019-03-21T09:43:20.369Z,101614.84
2019-03-21T09:45:48.943Z,101615.47
2019-03-21T09:48:17.413Z,101618.33
2019-03-21T09:50:45.947Z,101617.03
2019-03-21T09:53:16.088Z,101613.19
2019-03-21T09:55:44.564Z,101613.84
2019-03-21T09:58:13.198Z,101613.53
2019-03-21T10:00:41.657Z,101615.18
2019-03-21T10:03:10.214Z,101613.40
2019-03-21T10:05:38.678Z,101606.06
2019-03-21T10:08:07.240Z,101616.45
2019-03-21T10:10:35.877Z,101614.22
2019-03-21T10:13:05.532Z,101630.71
2019-03-21T10:15:34.148Z,101635.08
2019-03-21T10:18:03.790Z,101628.80
2019-03-21T10:20:32.324Z,101626.54
2019-03-21T10:23:02.294Z,101630.11
2019-03-21T10:25:30.817Z,101627.50
2019-03-21T10:27:59.298Z,101631.06
2019-03-21T10:30:30.823Z,101624.94
2019-03-21T10:32:59.416Z,101624.49
2019-03-21T10:35:27.870Z,101621.83
2019-03-21T10:37:56.353Z,101628.62
2019-03-21T10:40:24.842Z,101624.47
2019-03-21T10:42:55.101Z,101638.97
2019-03-21T10:45:23.574Z,101634.27
2019-03-21T10:47:52.084Z,101624.81
2019-03-21T10:50:29.516Z,101624.25
2019-03-21T10:52:59.034Z,101627.19
2019-03-21T10:55:27.502Z,101624.31
2019-03-21T10:57:55.983Z,101623.39
2019-03-21T11:00:24.593Z,101616.91
2019-03-21T11:02:53.083Z,101614.50
2019-03-21T11:05:23.221Z,101613.80
2019-03-21T11:07:51.941Z,101621.75
2019-03-21T11:10:20.597Z,101601.80
2019-03-21T11:12:49.103Z,101595.67
2019-03-21T11:15:17.718Z,101601.23
2019-03-21T11:17:46.340Z,101588.72
2019-03-21T11:20:17.861Z,101589.59
2019-03-21T11:22:46.339Z,101587.77
2019-03-21T11:25:14.834Z,101589.26
2019-03-21T11:27:44.271Z,101586.10
2019-03-21T11:30:16.473Z,101586.77
2019-03-21T11:32:45.168Z,101576.98
2019-03-21T11:35:13.634Z,101576.98
2019-03-21T11:37:42.110Z,101571.30
2019-03-21T11:40:10.711Z,101572.72
2019-03-21T11:42:39.203Z,101570.89
2019-03-21T11:45:08.196Z,101560.31
2019-03-21T11:47:41.732Z,101556.36
2019-03-21T11:50:07.332Z,101554.12
2019-03-21T11:52:35.804Z,101545.66
2019-03-21T11:55:06.814Z,101539.33
2019-03-21T11:57:35.282Z,101537.22
2019-03-21T12:00:06.861Z,101529.45
2019-03-21T12:02:35.368Z,101534.31
2019-03-21T12:05:06.433Z,101527.08
2019-03-21T12:07:34.966Z,101519.88
2019-03-21T12:10:04.142Z,101530.06
2019-03-21T12:12:32.624Z,101516.70
2019-03-21T12:15:01.133Z,101512.30
2019-03-21T12:17:29.614Z,101515.52
2019-03-21T12:19:58.097Z,101513.56
2019-03-21T12:22:30.367Z,101514.55
2019-03-21T12:24:56.804Z,101523.66
2019-03-21T12:27:26.243Z,101518.07
2019-03-21T12:29:54.819Z,101519.30
2019-03-21T12:32:23.307Z,101510.45
2019-03-21T12:34:51.826Z,101508.98
2019-03-21T12:37:20.306Z,101503.36
2019-03-21T12:39:48.783Z,101498.56
2019-03-21T12:42:17.253Z,101493.52
2019-03-21T12:44:45.845Z,101501.19
2019-03-21T12:47:14.333Z,101491.09
2019-03-21T12:49:42.906Z,101489.44
2019-03-21T12:52:11.376Z,101483.94
2019-03-21T12:54:41.880Z,101479.52
2019-03-21T12:57:10.364Z,101468.30
2019-03-21T12:59:38.899Z,101465.52
2019-03-21T13:02:07.413Z,101466.53
2019-03-21T13:04:35.922Z,101465.72
2019-03-21T13:07:04.651Z,101463.37
2019-03-21T13:09:33.234Z,101456.65
2019-03-21T13:12:01.870Z,101468.11
2019-03-21T13:14:30.396Z,101462.17
2019-03-21T13:16:58.878Z,101470.83
2019-03-21T13:19:27.394Z,101455.31
2019-03-21T13:21:56.006Z,101456.12
2019-03-21T13:24:24.489Z,101461.68
2019-03-21T13:26:52.952Z,101471.31
2019-03-21T13:29:21.457Z,101465.09
2019-03-21T13:31:49.926Z,101465.56
2019-03-21T13:34:18.455Z,101460.52
2019-03-21T13:36:46.928Z,101458.25
2019-03-21T13:39:15.652Z,101464.95
2019-03-21T13:41:44.120Z,101455.84
2019-03-21T13:44:13.686Z,101455.10
2019-03-21T13:46:42.218Z,101466.75
2019-03-21T13:49:10.715Z,101465.72
2019-03-21T13:51:39.302Z,101455.64
2019-03-21T13:54:08.883Z,101460.37
2019-03-21T13:56:38.463Z,101460.83
2019-03-21T13:59:07.181Z,101449.16
2019-03-21T14:01:35.730Z,101439.05
2019-03-21T14:04:04.321Z,101450.48
2019-03-21T14:06:32.836Z,101444.31
2019-03-21T14:09:01.380Z,101445.67
2019-03-21T14:11:29.866Z,101444.77
2019-03-21T14:13:58.326Z,101445.31
2019-03-21T14:16:26.809Z,101441.88
2019-03-21T14:18:55.365Z,101437.64
2019-03-21T14:21:23.880Z,101442.62
2019-03-21T14:23:52.360Z,101434.53
2019-03-21T14:26:20.843Z,101438.38
2019-03-21T14:28:49.309Z,101434.07
2019-03-21T14:31:17.841Z,101427.52
2019-03-21T14:33:46.311Z,101423.54
2019-03-21T14:36:14.820Z,101428.35
2019-03-21T14:38:43.331Z,101425.66
2019-03-21T14:41:11.929Z,101424.41
2019-03-21T14:43:40.400Z,101424.16
2019-03-21T14:46:08.964Z,101427.65
2019-03-21T14:48:37.551Z,101416.98
2019-03-21T14:51:06.062Z,101419.69
2019-03-21T14:53:34.594Z,101428.14
2019-03-21T14:56:03.108Z,101418.06
2019-03-21T14:58:31.576Z,101415.58
2019-03-21T15:01:00.153Z,101424.41
2019-03-21T15:03:28.616Z,101418.64
2019-03-21T15:05:57.104Z,101420.80
2019-03-21T15:08:25.667Z,101419.06
2019-03-21T15:10:54.342Z,101416.73
2019-03-21T15:13:22.844Z,101417.15
2019-03-21T15:15:52.012Z,101422.38
2019-03-21T15:18:20.477Z,101422.55
2019-03-21T15:20:48.993Z,101407.45
2019-03-21T15:23:17.460Z,101412.88
2019-03-21T15:25:46.175Z,101420.84
2019-03-21T15:28:14.737Z,101417.48
2019-03-21T15:30:43.210Z,101415.79
2019-03-21T15:33:11.824Z,101418.77
2019-03-21T15:35:40.287Z,101407.95
2019-03-21T15:38:08.866Z,101408.31
2019-03-21T15:40:37.370Z,101399.89
2019-03-21T15:43:05.890Z,101402.55
2019-03-21T15:45:34.533Z,101405.20
2019-03-21T15:48:03.020Z,101407.03
2019-03-21T15:50:37.393Z,101402.93
2019-03-21T15:53:06.167Z,101396.83
2019-03-21T15:55:34.804Z,101395.17
2019-03-21T15:58:03.556Z,101404.14
2019-03-21T16:00:40.182Z,101391.86
2019-03-21T16:03:10.147Z,101397.17
2019-03-21T16:05:39.181Z,101396.17
2019-03-21T16:08:09.192Z,101402.52
2019-03-21T16:10:38.193Z,101401.84
2019-03-21T16:13:06.807Z,101400.64
2019-03-21T16:15:35.506Z,101406.86
2019-03-21T16:18:04.372Z,101404.28
2019-03-21T16:20:32.864Z,101403.08
2019-03-21T16:23:01.398Z,101402.48
2019-03-21T16:25:29.941Z,101393.89
2019-03-21T16:27:58.566Z,101401.09
2019-03-21T16:30:27.034Z,101403.25
2019-03-21T16:32:55.570Z,101399.84
2019-03-21T16:35:24.039Z,101403.93
2019-03-21T16:37:52.572Z,101403.28
2019-03-21T16:40:21.044Z,101407.45
2019-03-21T16:42:49.593Z,101411.22
2019-03-21T16:45:20.983Z,101412.80
2019-03-21T16:47:48.404Z,101405.59
2019-03-21T16:50:16.939Z,101409.80
2019-03-21T16:52:45.429Z,101407.78
2019-03-21T16:55:15.947Z,101405.34
2019-03-21T16:57:44.505Z,101406.41
2019-03-21T17:00:20.591Z,101407.98
2019-03-21T17:02:49.078Z,101405.05
2019-03-21T17:05:17.571Z,101413.24
2019-03-21T17:07:47.008Z,101411.66
2019-03-21T17:10:16.699Z,101413.64
2019-03-21T17:12:45.419Z,101412.50
2019-03-21T17:15:15.124Z,101407.84
2019-03-21T17:17:43.789Z,101417.75
2019-03-21T17:20:13.239Z,101422.30
2019-03-21T17:22:41.739Z,101417.69
2019-03-21T17:25:11.242Z,101418.30
2019-03-21T17:27:39.726Z,101418.94
2019-03-21T17:30:11.114Z,101416.12
2019-03-21T17:32:39.722Z,101422.10
2019-03-21T17:35:08.441Z,101425.36
2019-03-21T17:37:36.988Z,101423.28
2019-03-21T17:40:11.413Z,101426.05
2019-03-21T17:42:39.899Z,101424.80
2019-03-21T17:45:13.990Z,101421.41
2019-03-21T17:47:42.532Z,101427.97
2019-03-21T17:50:13.144Z,101434.42
2019-03-21T17:52:41.698Z,101430.80
2019-03-21T17:55:10.602Z,101431.27
2019-03-21T17:57:39.135Z,101428.20
2019-03-21T18:00:10.513Z,101426.37
2019-03-21T18:02:39.319Z,101434.25
2019-03-21T18:05:08.841Z,101431.67
2019-03-21T18:07:37.308Z,101427.78
2019-03-21T18:10:10.935Z,101433.10
2019-03-21T18:12:39.419Z,101431.78
2019-03-21T18:15:08.167Z,101436.17
2019-03-21T18:17:36.637Z,101438.83
2019-03-21T18:20:06.365Z,101436.17
2019-03-21T18:22:34.824Z,101437.94
2019-03-21T18:25:03.904Z,101441.02
2019-03-21T18:27:32.390Z,101439.75
2019-03-21T18:30:00.933Z,101449.53
2019-03-21T18:32:29.490Z,101451.38
2019-03-21T18:34:57.979Z,101450.08
2019-03-21T18:37:26.429Z,101449.23
2019-03-21T18:39:55.866Z,101447.02
2019-03-21T18:42:24.330Z,101451.36
2019-03-21T18:44:52.851Z,101449.14
2019-03-21T18:47:21.436Z,101450.04
2019-03-21T18:49:49.948Z,101453.11
2019-03-21T18:52:18.430Z,101445.16
2019-03-21T18:54:46.944Z,101441.70
2019-03-21T18:57:15.414Z,101447.89
2019-03-21T18:59:43.941Z,101445.34
2019-03-21T19:02:12.445Z,101445.03
2019-03-21T19:04:40.960Z,101445.22
2019-03-21T19:07:09.426Z,101458.59
2019-03-21T19:09:37.911Z,101465.34
2019-03-21T19:12:06.370Z,101464.28
2019-03-21T19:14:34.859Z,101457.39
2019-03-21T19:17:04.329Z,101456.63
2019-03-21T19:19:32.844Z,101466.11
2019-03-21T19:22:01.323Z,101463.75
2019-03-21T19:24:29.957Z,101463.05
2019-03-21T19:26:58.624Z,101459.59
2019-03-21T19:29:27.134Z,101462.25
2019-03-21T19:31:55.604Z,101458.36
2019-03-21T19:34:24.149Z,101459.70
2019-03-21T19:36:52.611Z,101458.40
2019-03-21T19:39:21.084Z,101461.05
2019-03-21T19:41:49.546Z,101458.03
2019-03-21T19:44:18.027Z,101459.36
2019-03-21T19:46:46.687Z,101461.11
2019-03-21T19:49:15.452Z,101456.30
2019-03-21T19:51:44.008Z,101454.98
2019-03-21T19:54:12.472Z,101455.43
2019-03-21T19:56:41.880Z,101453.25
2019-03-21T19:59:11.801Z,101449.33
2019-03-21T20:01:40.274Z,101445.46
2019-03-21T20:04:08.734Z,101452.05
2019-03-21T20:06:37.230Z,101452.12
2019-03-21T20:09:07.155Z,101453.89
2019-03-21T20:11:35.634Z,101454.83
2019-03-21T20:14:04.284Z,101459.27
2019-03-21T20:16:32.774Z,101461.03
2019-03-21T20:19:01.243Z,101463.27
2019-03-21T20:21:47.141Z,101461.96
2019-03-21T20:24:05.856Z,101464.63
2019-03-21T20:26:34.359Z,101470.78
2019-03-21T20:29:02.866Z,101465.99
2019-03-21T20:31:31.339Z,101469.05
2019-03-21T20:34:01.344Z,101471.23
2019-03-21T20:36:29.826Z,101469.06
2019-03-21T20:38:58.291Z,101465.56
2019-03-21T20:41:26.796Z,101464.69
2019-03-21T20:43:55.267Z,101459.44
2019-03-21T20:46:23.833Z,101462.92
2019-03-21T20:48:51.146Z,101456.80
2019-03-21T20:51:19.769Z,101459.86
2019-03-21T20:53:48.316Z,101456.80
2019-03-21T20:56:16.837Z,101465.11
2019-03-21T20:58:45.308Z,101458.57
2019-03-21T21:01:13.867Z,101457.25
2019-03-21T21:03:42.464Z,101459.42
2019-03-21T21:06:10.963Z,101457.69
2019-03-21T21:08:39.451Z,101454.19
2019-03-21T21:11:08.134Z,101460.26
2019-03-21T21:13:36.617Z,101470.32
2019-03-21T21:16:06.155Z,101467.71
2019-03-21T21:18:34.647Z,101471.17
2019-03-21T21:21:03.163Z,101467.70
2019-03-21T21:23:31.724Z,101461.13
2019-03-21T21:26:05.581Z,101464.63
2019-03-21T21:28:30.446Z,101455.02
2019-03-21T21:30:58.926Z,101454.13
2019-03-21T21:33:27.461Z,101444.06
2019-03-21T21:35:55.959Z,101448.88
2019-03-21T21:38:24.428Z,101451.05
2019-03-21T21:40:52.918Z,101452.36
2019-03-21T21:43:21.393Z,101450.59
2019-03-21T21:45:49.903Z,101452.34
2019-03-21T21:48:18.439Z,101449.69
2019-03-21T21:50:46.907Z,101450.58
2019-03-21T21:53:15.390Z,101450.55
2019-03-21T21:55:43.949Z,101448.35
2019-03-21T21:58:12.690Z,101438.27
2019-03-21T22:00:41.193Z,101452.28
2019-03-21T22:03:09.737Z,101451.42
2019-03-21T22:05:38.204Z,101450.98
2019-03-21T22:08:06.693Z,101453.61
2019-03-21T22:10:35.171Z,101453.61
2019-03-21T22:13:03.891Z,101461.03
2019-03-21T22:15:32.361Z,101461.03
2019-03-21T22:18:00.900Z,101463.66
2019-03-21T22:20:29.416Z,101461.42
2019-03-21T22:22:58.029Z,101467.12
2019-03-21T22:25:26.570Z,101460.13
2019-03-21T22:27:55.134Z,101463.16
2019-03-21T22:30:23.603Z,101464.47
2019-03-21T22:32:52.284Z,101465.81
2019-03-21T22:35:20.870Z,101466.20
2019-03-21T22:37:49.390Z,101466.20
2019-03-21T22:40:19.133Z,101470.97
2019-03-21T22:42:48.632Z,101464.83
2019-03-21T22:45:20.133Z,101453.44
2019-03-21T22:47:50.507Z,101472.02
2019-03-21T22:50:19.159Z,101472.02
2019-03-21T22:52:47.715Z,101478.10
2019-03-21T22:55:16.415Z,101473.30
2019-03-21T22:57:45.070Z,101467.20
2019-03-21T23:00:22.969Z,101458.91
2019-03-21T23:02:51.453Z,101456.70
2019-03-21T23:05:20.830Z,101462.37
2019-03-21T23:07:49.325Z,101465.34
2019-03-21T23:10:17.936Z,101463.48
2019-03-21T23:12:46.531Z,101465.63
2019-03-21T23:15:15.341Z,101469.57
2019-03-21T23:17:43.885Z,101466.09
2019-03-21T23:20:14.887Z,101458.66
2019-03-21T23:22:43.540Z,101463.06
2019-03-21T23:25:13.155Z,101463.47
2019-03-21T23:27:41.645Z,101463.89
2019-03-21T23:30:15.603Z,101463.91
2019-03-21T23:32:44.259Z,101468.70
2019-03-21T23:35:12.869Z,101463.86
2019-03-21T23:37:42.416Z,101463.84
2019-03-21T23:40:15.279Z,101467.25
2019-03-21T23:42:43.928Z,101465.50
2019-03-21T23:45:13.646Z,101478.56
2019-03-21T23:47:42.172Z,101471.65
2019-03-21T23:50:14.908Z,101464.22
2019-03-21T23:52:43.664Z,101466.89
2019-03-21T23:55:12.471Z,101466.94
2019-03-21T23:57:40.930Z,101470.02
